createdAt,value
2018-10-17T00:00:20.255Z,1020.4
2018-10-17T00:05:21.679Z,1020.4
2018-10-17T00:10:21.611Z,1020.4
2018-10-17T00:15:34.164Z,1020.4
2018-10-17T00:20:34.080Z,1020.5
2018-10-17T00:25:33.865Z,1020.5
2018-10-17T00:30:34.041Z,1020.6
2018-10-17T00:35:33.857Z,1020.5
2018-10-17T00:40:34.321Z,1020.6
2018-10-17T00:45:34.004Z,1020.5
2018-10-17T00:50:34.559Z,1020.5
2018-10-17T00:55:34.296Z,1020.5
2018-10-17T01:00:48.296Z,1020.5
2018-10-17T01:05:47.972Z,1020.5
2018-10-17T01:10:47.862Z,1020.5
2018-10-17T01:15:48.028Z,1020.5
2018-10-17T01:20:48.070Z,1020.6
2018-10-17T01:25:51.525Z,1020.5
2018-10-17T01:30:52.000Z,1020.5
2018-10-17T01:35:56.361Z,1020.5
2018-10-17T01:40:56.644Z,1020.6
2018-10-17T01:46:06.401Z,1020.6
2018-10-17T01:51:06.311Z,1020.6
2018-10-17T01:56:06.326Z,1020.6
2018-10-17T02:01:06.612Z,1020.6
2018-10-17T02:06:07.327Z,1020.6
2018-10-17T02:11:06.478Z,1020.6
2018-10-17T02:16:06.365Z,1020.5
2018-10-17T02:21:09.287Z,1020.5
2018-10-17T02:26:09.377Z,1020.5
2018-10-17T02:31:20.077Z,1020.5
2018-10-17T02:36:19.514Z,1020.5
2018-10-17T02:41:19.861Z,1020.6
2018-10-17T02:46:19.465Z,1020.6
2018-10-17T02:51:19.430Z,1020.5
2018-10-17T02:56:19.339Z,1020.6
2018-10-17T03:01:19.825Z,1020.5
2018-10-17T03:06:19.574Z,1020.5
2018-10-17T03:11:19.840Z,1020.6
2018-10-17T03:16:32.273Z,1020.7
2018-10-17T03:21:31.990Z,1020.7
2018-10-17T03:26:31.985Z,1020.7
2018-10-17T03:31:32.702Z,1020.7
2018-10-17T03:36:32.202Z,1020.7
2018-10-17T03:41:31.977Z,1020.7
2018-10-17T03:46:31.994Z,1020.7
2018-10-17T03:51:32.511Z,1020.8
2018-10-17T03:56:32.430Z,1020.8
2018-10-17T04:01:45.151Z,1020.9
2018-10-17T04:06:45.103Z,1020.9
2018-10-17T04:11:44.901Z,1021
2018-10-17T04:16:44.996Z,1020.9
2018-10-17T04:21:44.951Z,1020.9
2018-10-17T04:26:44.870Z,1021
2018-10-17T04:31:44.876Z,1021.2
2018-10-17T04:36:45.260Z,1021.1
2018-10-17T04:41:44.947Z,1021.2
2018-10-17T04:46:57.569Z,1021.2
2018-10-17T04:51:57.101Z,1021.2
2018-10-17T04:56:57.309Z,1021.2
2018-10-17T05:01:57.144Z,1021.3
2018-10-17T05:06:57.743Z,1021.3
2018-10-17T05:11:57.113Z,1021.3
2018-10-17T05:16:57.704Z,1021.3
2018-10-17T05:21:58.354Z,1021.3
2018-10-17T05:26:58.116Z,1021.4
2018-10-17T05:32:11.009Z,1021.4
2018-10-17T05:37:11.302Z,1021.5
2018-10-17T05:42:10.947Z,1021.5
2018-10-17T05:47:11.083Z,1021.5
2018-10-17T05:52:10.730Z,1021.6
2018-10-17T05:57:10.931Z,1021.6
2018-10-17T06:02:11.620Z,1021.6
2018-10-17T06:07:11.369Z,1021.6
2018-10-17T06:12:11.002Z,1021.6
2018-10-17T06:17:23.423Z,1021.6
2018-10-17T06:22:22.772Z,1021.6
2018-10-17T06:27:22.904Z,1021.5
2018-10-17T06:32:22.770Z,1021.5
2018-10-17T06:37:22.758Z,1021.5
2018-10-17T06:42:23.061Z,1021.4
2018-10-17T06:47:22.983Z,1021.4
2018-10-17T06:52:25.330Z,1021.5
2018-10-17T06:57:24.996Z,1021.4
2018-10-17T07:02:37.512Z,1021.4
2018-10-17T07:07:37.430Z,1021.3
2018-10-17T07:12:37.246Z,1021.3
2018-10-17T07:17:37.378Z,1021.3
2018-10-17T07:22:37.810Z,1021.1
2018-10-17T07:27:37.249Z,1021.2
2018-10-17T07:32:37.237Z,1021.1
2018-10-17T07:37:39.981Z,1021
2018-10-17T07:42:39.738Z,1020.9
2018-10-17T07:47:52.740Z,1020.9
2018-10-17T07:52:52.406Z,1020.8
2018-10-17T07:57:52.172Z,1020.7
2018-10-17T08:02:52.221Z,1020.7
2018-10-17T08:07:52.423Z,1020.6
2018-10-17T08:12:52.443Z,1020.6
2018-10-17T08:17:52.786Z,1020.6
2018-10-17T08:22:52.605Z,1020.6
2018-10-17T08:27:52.598Z,1020.4
2018-10-17T08:33:04.606Z,1020.4
2018-10-17T08:38:04.795Z,1020.3
2018-10-17T08:43:04.512Z,1020.3
2018-10-17T08:48:07.450Z,1020.3
2018-10-17T08:53:04.613Z,1020.3
2018-10-17T08:58:04.503Z,1020.3
2018-10-17T09:03:04.364Z,1020.2
2018-10-17T09:08:08.242Z,1020.2
2018-10-17T09:13:07.592Z,1020.2
2018-10-17T09:18:21.199Z,1020.1
2018-10-17T09:23:20.723Z,1020
2018-10-17T09:28:20.754Z,1019.9
2018-10-17T09:33:20.707Z,1020
2018-10-17T09:38:20.559Z,1019.9
2018-10-17T09:43:21.014Z,1019.9
2018-10-17T09:48:20.688Z,1019.7
2018-10-17T09:53:21.990Z,1019.6
2018-10-17T09:58:21.565Z,1019.6
2018-10-17T10:03:33.852Z,1019.5
2018-10-17T10:08:33.740Z,1019.5
2018-10-17T10:13:33.562Z,1019.3
2018-10-17T10:18:33.692Z,1019.3
2018-10-17T10:23:33.916Z,1019.2
2018-10-17T10:28:33.863Z,1019.1
2018-10-17T10:33:33.540Z,1019
2018-10-17T10:38:34.450Z,1019
2018-10-17T10:43:33.987Z,1019
2018-10-17T10:48:46.753Z,1018.8
2018-10-17T10:53:46.638Z,1018.7
2018-10-17T10:58:47.368Z,1018.7
2018-10-17T11:03:46.498Z,1018.6
2018-10-17T11:08:46.647Z,1018.6
2018-10-17T11:13:46.834Z,1018.4
2018-10-17T11:18:46.694Z,1018.3
2018-10-17T11:23:47.497Z,1018.2
2018-10-17T11:28:47.327Z,1018.1
2018-10-17T11:33:59.350Z,1018.1
2018-10-17T11:39:00.513Z,1018.1
2018-10-17T11:43:59.097Z,1018.1
2018-10-17T11:48:59.295Z,1018.1
2018-10-17T11:53:59.337Z,1017.9
2018-10-17T11:58:59.395Z,1017.8
2018-10-17T12:04:00.517Z,1017.9
2018-10-17T12:09:00.127Z,1017.7
2018-10-17T12:13:59.675Z,1017.8
2018-10-17T12:19:12.420Z,1017.7
2018-10-17T12:24:12.350Z,1017.7
2018-10-17T12:29:11.989Z,1017.7
2018-10-17T12:34:11.713Z,1017.6
2018-10-17T12:39:12.501Z,1017.4
2018-10-17T12:44:12.040Z,1017.5
2018-10-17T12:49:12.180Z,1017.4
2018-10-17T12:54:13.125Z,1017.3
2018-10-17T12:59:16.639Z,1017.3
2018-10-17T13:04:25.526Z,1017.2
2018-10-17T13:09:25.529Z,1017.3
2018-10-17T13:14:25.471Z,1017.2
2018-10-17T13:19:25.388Z,1017.2
2018-10-17T13:24:25.628Z,1017.2
2018-10-17T13:29:25.494Z,1017.1
2018-10-17T13:34:25.924Z,1017.1
2018-10-17T13:39:26.282Z,1017
2018-10-17T13:44:26.181Z,1017
2018-10-17T13:49:39.359Z,1016.9
2018-10-17T13:54:38.722Z,1017
2018-10-17T13:59:38.767Z,1017
2018-10-17T14:04:38.583Z,1016.9
2018-10-17T14:09:38.553Z,1016.9
2018-10-17T14:14:38.479Z,1017
2018-10-17T14:19:38.427Z,1016.9
2018-10-17T14:24:38.903Z,1016.9
2018-10-17T14:29:39.333Z,1016.9
2018-10-17T14:34:51.482Z,1016.9
2018-10-17T14:39:51.184Z,1016.9
2018-10-17T14:44:51.416Z,1016.9
2018-10-17T14:49:51.452Z,1016.9
2018-10-17T14:54:51.389Z,1017
2018-10-17T14:59:51.401Z,1017.1
2018-10-17T15:04:51.450Z,1017
2018-10-17T15:09:51.785Z,1016.9
2018-10-17T15:14:51.532Z,1017
2018-10-17T15:20:04.053Z,1016.9
2018-10-17T15:25:03.733Z,1017
2018-10-17T15:30:04.365Z,1017
2018-10-17T15:35:03.740Z,1017
2018-10-17T15:40:03.782Z,1017.1
2018-10-17T15:45:04.443Z,1017.1
2018-10-17T15:50:04.006Z,1017.1
2018-10-17T15:55:03.858Z,1017.2
2018-10-17T16:00:04.483Z,1017.2
2018-10-17T16:05:16.451Z,1017.3
2018-10-17T16:10:16.320Z,1017.3
2018-10-17T16:15:16.382Z,1017.4
2018-10-17T16:20:16.942Z,1017.3
2018-10-17T16:25:16.152Z,1017.4
2018-10-17T16:30:16.621Z,1017.5
2018-10-17T16:35:16.427Z,1017.6
2018-10-17T16:40:20.194Z,1017.6
2018-10-17T16:45:19.962Z,1017.7
2018-10-17T16:50:33.497Z,1017.9
2018-10-17T16:55:32.420Z,1017.9
2018-10-17T17:00:32.230Z,1017.9
2018-10-17T17:05:32.513Z,1017.9
2018-10-17T17:10:32.381Z,1017.9
2018-10-17T17:15:32.243Z,1018
2018-10-17T17:20:32.518Z,1018
2018-10-17T17:25:34.962Z,1018
2018-10-17T17:30:34.990Z,1018
2018-10-17T17:35:47.010Z,1018.1
2018-10-17T17:40:46.842Z,1018.3
2018-10-17T17:45:46.849Z,1018.2
2018-10-17T17:50:46.881Z,1018.1
2018-10-17T17:55:46.859Z,1018.1
2018-10-17T18:00:46.737Z,1018.1
2018-10-17T18:05:46.736Z,1018.1
2018-10-17T18:10:47.959Z,1018.1
2018-10-17T18:15:47.901Z,1018.1
2018-10-17T18:21:00.764Z,1018.1
2018-10-17T18:26:00.490Z,1018.2
2018-10-17T18:31:00.714Z,1018.3
2018-10-17T18:36:00.858Z,1018.3
2018-10-17T18:41:00.655Z,1018.3
2018-10-17T18:46:00.727Z,1018.4
2018-10-17T18:51:00.722Z,1018.5
2018-10-17T18:56:00.768Z,1018.5
2018-10-17T19:01:00.683Z,1018.7
2018-10-17T19:06:13.271Z,1018.8
2018-10-17T19:11:13.163Z,1018.8
2018-10-17T19:16:13.636Z,1019
2018-10-17T19:21:13.549Z,1018.9
2018-10-17T19:26:13.193Z,1019
2018-10-17T19:31:12.957Z,1018.9
2018-10-17T19:36:13.650Z,1018.9
2018-10-17T19:41:14.187Z,1019
2018-10-17T19:46:14.151Z,1019.1
2018-10-17T19:51:26.895Z,1019.1
2018-10-17T19:56:26.767Z,1019.2
2018-10-17T20:01:26.601Z,1019.1
2018-10-17T20:06:26.864Z,1019.1
2018-10-17T20:11:26.757Z,1019.2
2018-10-17T20:16:26.801Z,1019.2
2018-10-17T20:21:26.567Z,1019.1
2018-10-17T20:26:27.296Z,1019.2
2018-10-17T20:31:27.257Z,1019.2
2018-10-17T20:36:42.422Z,1019.2
2018-10-17T20:41:39.506Z,1019.3
2018-10-17T20:46:39.322Z,1019.2
2018-10-17T20:51:39.410Z,1019.2
2018-10-17T20:56:39.616Z,1019.2
2018-10-17T21:01:39.749Z,1019.2
2018-10-17T21:06:39.488Z,1019.2
2018-10-17T21:11:40.032Z,1019.3
2018-10-17T21:16:39.795Z,1019.3
2018-10-17T21:21:52.395Z,1019.4
2018-10-17T21:26:52.793Z,1019.4
2018-10-17T21:31:52.428Z,1019.3
2018-10-17T21:36:52.302Z,1019.4
2018-10-17T21:41:52.361Z,1019.3
2018-10-17T21:46:52.267Z,1019.3
2018-10-17T21:51:52.462Z,1019.2
2018-10-17T21:56:52.461Z,1019.4
2018-10-17T22:01:52.782Z,1019.3
2018-10-17T22:06:52.248Z,1019.4
2018-10-17T22:11:52.331Z,1019.4
2018-10-17T22:16:52.373Z,1019.4
2018-10-17T22:21:52.885Z,1019.5
2018-10-17T22:26:52.770Z,1019.4
2018-10-17T22:32:06.051Z,1019.5
2018-10-17T22:37:05.437Z,1019.6
2018-10-17T22:42:05.191Z,1019.5
2018-10-17T22:47:05.230Z,1019.6
2018-10-17T22:52:05.167Z,1019.6
2018-10-17T22:57:05.230Z,1019.5
2018-10-17T23:02:05.673Z,1019.6
2018-10-17T23:07:05.426Z,1019.6
2018-10-17T23:12:05.462Z,1019.6
2018-10-17T23:17:17.612Z,1019.6
2018-10-17T23:22:17.515Z,1019.7
2018-10-17T23:27:17.420Z,1019.7
2018-10-17T23:32:18.083Z,1019.7
2018-10-17T23:37:17.509Z,1019.7
2018-10-17T23:42:17.823Z,1019.6
2018-10-17T23:47:17.458Z,1019.7
2018-10-17T23:52:17.734Z,1019.7
2018-10-17T23:57:17.634Z,1019.7
